Time;durP1;ratioP1;P1;durP2;ratioP2;P2;SDS_P1;SDS_P2;PMS_P1;PMS_P2;Temp;Humidity;BMP_temperature;BMP_pressure;BME280_temperature;BME280_humidity;BME280_pressure;Samples;Min_cycle;Max_cycle;Signal;HPM_P1;HPM_P2
2021/12/08 00:00:39;;;;;;;5.78;4.45;;;17.40;52.10;;;;;;4982322;28;20081;-62
2021/12/08 00:03:06;;;;;;;6.35;3.83;;;17.40;52.00;;;;;;4982416;28;20030;-62
2021/12/08 00:05:32;;;;;;;6.75;4.55;;;17.40;51.90;;;;;;4982772;28;20053;-64
2021/12/08 00:07:57;;;;;;;6.72;4.55;;;17.40;52.10;;;;;;4998078;28;20030;-64
2021/12/08 00:13:03;;;;;;;7.73;4.77;;;17.40;52.00;;;;;;4982903;28;20443;-65
2021/12/08 00:15:39;;;;;;;5.07;4.10;;;17.40;52.10;;;;;;4980207;28;20321;-63
2021/12/08 00:18:06;;;;;;;5.85;4.65;;;17.40;52.10;;;;;;4966944;28;20208;-65
2021/12/08 00:20:32;;;;;;;6.95;5.07;;;17.40;51.90;;;;;;4967803;28;20035;-63
2021/12/08 00:22:59;;;;;;;5.85;4.47;;;17.40;51.90;;;;;;4972782;28;20154;-63
2021/12/08 00:25:24;;;;;;;5.55;4.60;;;17.40;52.00;;;;;;4981076;28;20038;-65
2021/12/08 00:27:50;;;;;;;5.55;4.22;;;17.40;51.90;;;;;;4982857;28;20495;-65
2021/12/08 00:30:16;;;;;;;6.28;4.50;;;17.40;51.90;;;;;;4981436;28;20046;-65
2021/12/08 00:32:42;;;;;;;6.63;4.32;;;17.40;51.90;;;;;;4982552;28;20041;-65
2021/12/08 00:35:08;;;;;;;7.32;4.35;;;17.40;51.90;;;;;;4982006;28;20046;-65
2021/12/08 00:37:33;;;;;;;6.13;4.63;;;17.50;51.80;;;;;;4981667;28;20408;-66
2021/12/08 00:39:59;;;;;;;6.55;4.68;;;17.50;51.80;;;;;;4981333;28;20030;-65
2021/12/08 00:42:24;;;;;;;7.07;5.22;;;17.50;51.70;;;;;;4982608;28;20033;-65
2021/12/08 00:44:50;;;;;;;5.60;5.03;;;17.50;51.80;;;;;;4982236;28;20538;-65
2021/12/08 00:47:16;;;;;;;9.35;5.32;;;17.50;52.40;;;;;;4983387;28;20038;-65
2021/12/08 00:49:41;;;;;;;7.25;5.22;;;17.50;51.80;;;;;;4985063;28;20034;-65
2021/12/08 00:52:07;;;;;;;6.80;4.72;;;17.50;51.70;;;;;;4971385;28;22340;-65
2021/12/08 00:54:32;;;;;;;7.93;5.25;;;17.50;51.70;;;;;;4981892;28;20043;-65
2021/12/08 00:56:58;;;;;;;7.10;5.20;;;17.50;51.70;;;;;;4974517;28;20528;-64
2021/12/08 00:59:24;;;;;;;6.22;5.35;;;17.50;51.70;;;;;;4971270;28;20035;-63
2021/12/08 01:01:49;;;;;;;6.53;4.85;;;17.50;51.70;;;;;;4978215;28;20039;-65
2021/12/08 01:04:15;;;;;;;6.43;5.03;;;17.50;51.70;;;;;;4969907;28;20041;-63
2021/12/08 01:06:41;;;;;;;6.32;5.00;;;17.50;51.60;;;;;;4982556;28;20046;-63
2021/12/08 01:09:07;;;;;;;8.77;5.72;;;17.50;51.60;;;;;;4973897;28;20086;-65
2021/12/08 01:11:32;;;;;;;6.00;5.00;;;17.50;51.50;;;;;;4984919;28;20026;-64
2021/12/08 01:13:58;;;;;;;6.63;5.32;;;17.50;51.50;;;;;;4982647;28;20039;-64
2021/12/08 01:16:23;;;;;;;7.18;5.10;;;17.50;51.50;;;;;;4984224;28;20038;-64
2021/12/08 01:18:49;;;;;;;6.50;5.28;;;17.50;52.20;;;;;;4976207;28;20109;-66
2021/12/08 01:21:14;;;;;;;6.22;4.88;;;17.50;51.60;;;;;;4977964;28;20045;-62
2021/12/08 01:23:40;;;;;;;7.18;5.60;;;17.50;51.60;;;;;;4975836;28;20054;-64
2021/12/08 01:26:06;;;;;;;8.48;6.07;;;17.50;51.50;;;;;;4980013;28;20161;-63
2021/12/08 01:28:32;;;;;;;7.60;5.78;;;17.50;51.60;;;;;;4971623;28;20121;-64
2021/12/08 01:31:00;;;;;;;5.97;5.38;;;17.50;51.60;;;;;;4981650;28;20114;-64
2021/12/08 01:33:27;;;;;;;8.10;5.68;;;17.50;51.50;;;;;;4976698;28;20092;-63
2021/12/08 01:35:52;;;;;;;7.88;5.68;;;17.50;51.60;;;;;;4966556;28;20113;-65
2021/12/08 01:38:18;;;;;;;6.93;5.22;;;17.50;51.60;;;;;;4980334;28;20449;-65
2021/12/08 01:40:43;;;;;;;6.50;5.05;;;17.50;51.70;;;;;;4966620;28;20027;-62
2021/12/08 01:43:23;;;;;;;7.50;5.65;;;17.50;51.70;;;;;;4967042;28;20037;-65
2021/12/08 01:45:59;;;;;;;8.82;5.80;;;17.50;51.70;;;;;;4984529;28;20463;-66
2021/12/08 01:48:27;;;;;;;6.13;5.07;;;17.40;51.70;;;;;;4985654;28;20053;-64
2021/12/08 01:50:56;;;;;;;8.25;5.88;;;17.50;51.70;;;;;;4998940;28;20034;-65
2021/12/08 01:53:22;;;;;;;7.32;5.40;;;17.50;51.70;;;;;;4995480;28;20110;-64
2021/12/08 01:55:47;;;;;;;7.10;5.68;;;17.50;51.70;;;;;;4985163;28;20121;-64
2021/12/08 01:58:13;;;;;;;7.57;5.57;;;17.50;51.70;;;;;;4984213;28;20475;-61
2021/12/08 02:00:45;;;;;;;7.53;5.47;;;17.50;51.70;;;;;;4987147;28;20064;-63
2021/12/08 02:03:10;;;;;;;7.22;5.72;;;17.50;51.70;;;;;;4990222;28;20062;-62
2021/12/08 02:05:36;;;;;;;7.93;5.50;;;17.50;51.70;;;;;;4984666;28;20488;-65
2021/12/08 02:08:03;;;;;;;7.97;5.97;;;17.40;51.70;;;;;;4999713;28;20029;-65
2021/12/08 02:10:28;;;;;;;8.18;5.20;;;17.40;51.60;;;;;;4982581;28;20437;-66
2021/12/08 02:12:54;;;;;;;7.47;5.20;;;17.50;51.70;;;;;;4984333;28;20034;-65
2021/12/08 02:15:20;;;;;;;7.82;5.35;;;17.50;51.70;;;;;;4984485;28;20041;-66
2021/12/08 02:17:47;;;;;;;7.47;5.60;;;17.50;51.60;;;;;;4999955;28;20093;-66
2021/12/08 02:20:13;;;;;;;8.02;4.88;;;17.50;51.70;;;;;;4984232;28;20104;-65
2021/12/08 02:22:39;;;;;;;8.23;6.30;;;17.40;51.60;;;;;;4998973;28;20038;-66
2021/12/08 02:25:06;;;;;;;7.00;5.40;;;17.40;51.70;;;;;;4984490;28;20034;-66
2021/12/08 02:27:33;;;;;;;5.90;4.97;;;17.40;51.70;;;;;;4984101;28;20058;-65
2021/12/08 02:30:06;;;;;;;6.50;4.63;;;17.40;51.70;;;;;;4983858;28;20110;-65
2021/12/08 02:48:57;;;;;;;7.88;5.18;;;17.30;51.80;;;;;;4983930;28;20053;-65
2021/12/08 02:51:22;;;;;;;7.18;5.38;;;17.30;51.90;;;;;;4983828;28;20500;-65
2021/12/08 02:53:48;;;;;;;6.95;5.60;;;17.30;52.00;;;;;;4984167;28;20539;-65
2021/12/08 02:56:15;;;;;;;7.10;5.20;;;17.30;52.10;;;;;;4983994;28;20038;-65
2021/12/08 02:58:41;;;;;;;5.95;4.90;;;17.30;52.00;;;;;;4998648;28;20030;-65
2021/12/08 03:01:08;;;;;;;9.18;5.32;;;17.30;52.00;;;;;;4983035;28;20130;-65
2021/12/08 03:03:34;;;;;;;7.25;5.07;;;17.30;52.00;;;;;;4983955;28;20046;-65
2021/12/08 03:05:59;;;;;;;8.00;4.97;;;17.30;52.00;;;;;;4983573;28;20037;-65
2021/12/08 03:08:25;;;;;;;5.75;4.45;;;17.30;52.00;;;;;;4994295;28;20169;-65
2021/12/08 03:10:51;;;;;;;7.70;4.93;;;17.30;52.10;;;;;;4983413;28;20477;-65
2021/12/08 03:13:16;;;;;;;6.18;4.82;;;17.30;52.10;;;;;;4982084;28;20084;-65
2021/12/08 03:15:42;;;;;;;6.90;5.18;;;17.30;52.10;;;;;;4983884;28;20088;-65
2021/12/08 03:18:08;;;;;;;6.57;4.55;;;17.30;52.10;;;;;;4982848;28;20173;-65
2021/12/08 03:20:41;;;;;;;5.50;4.53;;;17.30;52.20;;;;;;4998101;28;20314;-65
2021/12/08 03:23:07;;;;;;;6.90;4.70;;;17.30;52.20;;;;;;4982871;28;20424;-65
2021/12/08 03:25:38;;;;;;;5.82;4.80;;;17.30;52.10;;;;;;4997688;28;20469;-65
2021/12/08 03:28:13;;;;;;;5.20;4.55;;;17.30;52.10;;;;;;4983127;28;20038;-66
2021/12/08 03:30:51;;;;;;;5.82;4.60;;;17.30;52.10;;;;;;4996862;28;20033;-65
2021/12/08 03:33:17;;;;;;;6.38;4.93;;;17.30;52.10;;;;;;4983227;28;20434;-65
2021/12/08 03:35:43;;;;;;;5.47;3.92;;;17.30;52.10;;;;;;4965807;28;20030;-65
2021/12/08 03:38:08;;;;;;;6.43;5.10;;;17.30;52.20;;;;;;4983038;28;20034;-65
2021/12/08 03:40:34;;;;;;;5.65;4.22;;;17.30;52.20;;;;;;4997435;28;20039;-65
2021/12/08 03:42:59;;;;;;;5.78;4.85;;;17.30;52.10;;;;;;4983291;28;20105;-65
2021/12/08 03:45:30;;;;;;;5.13;4.28;;;17.30;52.00;;;;;;4983692;28;20038;-65
2021/12/08 03:48:01;;;;;;;7.22;4.72;;;17.30;52.10;;;;;;4993695;28;20034;-64
2021/12/08 03:50:27;;;;;;;5.22;4.20;;;17.30;52.10;;;;;;4982581;28;20037;-65
2021/12/08 03:52:52;;;;;;;5.68;4.05;;;17.30;52.00;;;;;;4982792;28;20034;-65
2021/12/08 03:55:18;;;;;;;5.55;4.45;;;17.30;52.00;;;;;;4982423;28;20663;-64
2021/12/08 03:57:43;;;;;;;6.10;4.28;;;17.30;52.10;;;;;;4982965;28;20036;-65
2021/12/08 04:00:11;;;;;;;5.35;4.32;;;17.30;52.10;;;;;;4998199;28;20079;-65
2021/12/08 04:02:36;;;;;;;5.75;4.38;;;17.30;52.10;;;;;;4983478;28;20073;-64
2021/12/08 04:05:03;;;;;;;7.30;4.20;;;17.30;52.10;;;;;;4981600;28;20035;-66
2021/12/08 04:07:30;;;;;;;5.30;4.50;;;17.30;52.10;;;;;;4998164;28;20729;-65
2021/12/08 04:09:56;;;;;;;5.88;4.53;;;17.30;52.10;;;;;;4996437;28;20030;-65
2021/12/08 04:12:22;;;;;;;4.53;3.83;;;17.30;52.10;;;;;;4997317;28;20053;-64
2021/12/08 04:14:58;;;;;;;7.03;5.03;;;17.30;52.00;;;;;;4983046;28;20121;-65
2021/12/08 04:17:35;;;;;;;5.47;4.13;;;17.30;52.10;;;;;;4997805;28;20471;-64
2021/12/08 04:20:07;;;;;;;5.75;4.10;;;17.30;52.10;;;;;;4982415;28;20199;-65
2021/12/08 04:22:35;;;;;;;5.43;3.95;;;17.30;52.00;;;;;;4997909;28;20041;-65
2021/12/08 04:25:03;;;;;;;5.47;4.35;;;17.30;52.00;;;;;;4984654;28;20023;-65
2021/12/08 04:27:31;;;;;;;7.57;4.63;;;17.30;52.00;;;;;;4986115;28;20688;-65
2021/12/08 04:29:56;;;;;;;5.70;4.40;;;17.30;52.00;;;;;;4985509;28;20039;-65
2021/12/08 04:32:23;;;;;;;5.18;3.95;;;17.40;51.90;;;;;;4987759;28;20043;-65
2021/12/08 04:34:50;;;;;;;5.18;4.15;;;17.30;51.90;;;;;;4988341;28;20037;-65
2021/12/08 04:37:22;;;;;;;6.90;4.72;;;17.30;51.90;;;;;;5003069;28;20034;-65
2021/12/08 04:40:15;;;;;;;7.57;5.03;;;17.30;51.90;;;;;;4986963;28;20031;-64
2021/12/08 04:42:56;;;;;;;5.57;4.38;;;17.30;51.90;;;;;;4986343;28;20038;-68
2021/12/08 04:45:32;;;;;;;5.93;4.45;;;17.30;51.90;;;;;;4982309;28;20444;-65
2021/12/08 04:50:49;;;;;;;6.93;4.70;;;17.30;52.00;;;;;;4995810;28;20034;-63
2021/12/08 05:01:43;;;;;;;4.60;3.58;;;17.40;52.00;;;;;;4968507;28;20049;-64
2021/12/08 05:04:27;;;;;;;4.88;3.80;;;17.40;51.90;;;;;;4954769;28;20022;-64
2021/12/08 05:09:35;;;;;;;4.82;3.80;;;17.40;51.90;;;;;;4964747;28;20082;-65
2021/12/08 05:12:07;;;;;;;6.03;4.50;;;17.40;51.90;;;;;;4949758;28;20035;-63
2021/12/08 05:14:37;;;;;;;4.50;4.00;;;17.40;51.90;;;;;;4962587;28;20414;-62
2021/12/08 05:17:12;;;;;;;5.30;3.40;;;17.40;51.80;;;;;;4963474;28;20047;-63
2021/12/08 05:19:37;;;;;;;6.35;4.18;;;17.40;51.90;;;;;;4967823;28;20215;-60
2021/12/08 05:22:15;;;;;;;6.85;4.38;;;17.40;51.90;;;;;;4984683;28;20026;-65
2021/12/08 05:24:44;;;;;;;5.40;3.88;;;17.40;51.90;;;;;;4976094;28;20022;-63
2021/12/08 05:27:14;;;;;;;5.10;4.07;;;17.40;51.80;;;;;;4966031;28;20677;-64
2021/12/08 05:29:43;;;;;;;5.97;4.53;;;17.40;51.80;;;;;;4984928;28;20436;-64
2021/12/08 05:32:08;;;;;;;5.68;4.07;;;17.40;51.80;;;;;;4982072;28;20035;-64
2021/12/08 05:34:34;;;;;;;6.07;4.82;;;17.40;51.80;;;;;;4984079;28;20046;-64
2021/12/08 05:37:00;;;;;;;11.02;6.75;;;17.40;51.90;;;;;;4980888;28;20033;-65
2021/12/08 05:39:26;;;;;;;9.27;6.75;;;17.40;51.90;;;;;;4985108;28;20254;-63
2021/12/08 05:41:55;;;;;;;13.98;7.93;;;17.40;52.10;;;;;;4985006;28;20026;-62
2021/12/08 05:44:21;;;;;;;13.45;8.50;;;17.50;52.20;;;;;;4985260;28;20065;-63
2021/12/08 05:46:48;;;;;;;17.83;8.00;;;17.50;52.30;;;;;;4985394;28;20080;-62
2021/12/08 05:49:14;;;;;;;11.27;7.80;;;17.50;52.30;;;;;;4984154;28;20038;-63
2021/12/08 05:51:40;;;;;;;15.88;6.90;;;17.50;52.30;;;;;;4985448;28;20085;-61
2021/12/08 05:54:11;;;;;;;10.88;7.22;;;17.50;52.30;;;;;;4984513;28;20440;-60
2021/12/08 05:56:37;;;;;;;13.35;7.15;;;17.50;52.40;;;;;;4985397;28;20061;-61
2021/12/08 05:59:02;;;;;;;14.10;7.38;;;17.50;52.30;;;;;;4984676;28;20053;-63
2021/12/08 06:01:48;;;;;;;11.40;6.80;;;17.50;52.40;;;;;;4984285;28;20659;-61
2021/12/08 06:04:14;;;;;;;;;;;17.50;52.40;;;;;;4985690;28;20397;-62
2021/12/08 06:06:40;;;;;;;11.40;6.40;;;17.50;52.30;;;;;;4985509;28;19916;-63
2021/12/08 06:09:07;;;;;;;8.80;6.00;;;17.50;52.30;;;;;;4984868;28;20037;-61
2021/12/08 06:11:33;;;;;;;9.45;6.15;;;17.50;52.30;;;;;;4999590;28;20042;-65
2021/12/08 06:14:00;;;;;;;9.20;6.18;;;17.50;52.30;;;;;;4999048;28;20034;-63
2021/12/08 06:16:29;;;;;;;11.20;6.63;;;17.50;52.30;;;;;;4984283;28;20048;-64
2021/12/08 06:18:54;;;;;;;10.68;6.25;;;17.50;52.20;;;;;;4984828;28;20054;-63
2021/12/08 06:40:23;;;;;;;46.35;22.92;;;17.60;52.10;;;;;;5052916;28;20391;-55
2021/12/08 06:42:52;;;;;;;47.53;24.00;;;17.60;51.80;;;;;;5052358;28;20053;-52
2021/12/08 06:45:22;;;;;;;46.28;21.70;;;17.60;51.60;;;;;;5062110;28;20033;-52
2021/12/08 06:47:48;;;;;;;44.03;21.17;;;17.60;51.60;;;;;;5057274;28;20029;-55
2021/12/08 06:50:17;;;;;;;45.55;20.98;;;17.50;51.50;;;;;;5039938;28;20083;-51
2021/12/08 06:52:43;;;;;;;36.60;18.58;;;17.50;51.30;;;;;;5043003;28;20488;-55
2021/12/08 06:55:12;;;;;;;35.95;19.27;;;17.40;51.30;;;;;;5042596;28;20071;-52
2021/12/08 06:57:41;;;;;;;31.52;17.95;;;17.40;51.30;;;;;;5042733;28;20049;-51
2021/12/08 07:00:34;;;;;;;31.55;17.65;;;17.40;51.30;;;;;;5040602;28;20052;-55
2021/12/08 07:06:29;;;;;;;26.15;14.30;;;17.40;51.40;;;;;;5057745;28;20040;-53
2021/12/08 07:08:46;;;;;;;26.45;13.73;;;17.30;51.50;;;;;;5055235;28;20303;-50
2021/12/08 07:11:12;;;;;;;25.17;14.70;;;17.30;51.60;;;;;;5061222;28;20037;-53
2021/12/08 07:13:38;;;;;;;24.58;13.60;;;17.30;51.60;;;;;;5061064;28;20036;-51
2021/12/08 07:16:10;;;;;;;25.00;12.40;;;17.30;51.60;;;;;;5060932;28;20054;-51
2021/12/08 07:18:54;;;;;;;23.02;12.40;;;17.20;51.40;;;;;;5060630;28;20048;-51
2021/12/08 07:21:24;;;;;;;25.17;11.85;;;17.20;51.20;;;;;;5041232;28;20061;-52
2021/12/08 07:23:56;;;;;;;21.33;11.77;;;17.20;51.00;;;;;;5041058;28;20032;-52
2021/12/08 07:26:24;;;;;;;20.65;10.55;;;17.20;51.00;;;;;;5041204;28;20040;-53
2021/12/08 07:28:50;;;;;;;15.80;9.75;;;17.20;51.00;;;;;;5040805;28;20068;-54
2021/12/08 07:31:22;;;;;;;18.77;10.65;;;17.20;51.10;;;;;;5040639;28;20053;-53
2021/12/08 07:33:48;;;;;;;17.30;10.32;;;17.10;51.10;;;;;;5041392;28;20044;-52
2021/12/08 07:36:16;;;;;;;17.90;10.40;;;17.10;51.10;;;;;;5041697;28;20033;-52
2021/12/08 07:38:42;;;;;;;17.83;10.52;;;17.10;51.20;;;;;;5037129;28;20037;-55
2021/12/08 07:41:11;;;;;;;18.63;9.93;;;17.10;51.40;;;;;;5026715;28;20040;-53
2021/12/08 07:43:42;;;;;;;18.30;9.70;;;17.10;51.50;;;;;;5027044;28;20458;-54
2021/12/08 07:46:12;;;;;;;20.45;9.77;;;17.10;51.70;;;;;;5027367;28;20034;-55
2021/12/08 07:48:43;;;;;;;17.85;10.07;;;17.10;52.40;;;;;;5023048;28;20025;-51
2021/12/08 07:51:20;;;;;;;21.00;9.40;;;17.00;51.90;;;;;;5016560;28;20044;-52
2021/12/08 07:53:46;;;;;;;16.67;8.98;;;17.00;51.90;;;;;;5026467;28;20381;-55
2021/12/08 07:56:12;;;;;;;14.18;8.02;;;17.00;51.90;;;;;;5009160;28;20033;-50
2021/12/08 07:58:39;;;;;;;17.20;8.43;;;17.00;52.00;;;;;;5025535;28;20404;-51
2021/12/08 08:01:16;;;;;;;20.00;8.75;;;17.00;52.00;;;;;;5026650;28;20117;-56
2021/12/08 08:03:42;;;;;;;15.48;8.20;;;17.00;52.00;;;;;;5022653;28;20034;-50
2021/12/08 08:06:11;;;;;;;15.73;8.93;;;17.00;52.00;;;;;;5025568;28;20036;-52
2021/12/08 08:08:36;;;;;;;18.67;9.15;;;17.00;51.90;;;;;;5024796;28;20113;-55
2021/12/08 08:11:08;;;;;;;12.90;8.82;;;17.10;51.90;;;;;;5014424;28;20473;-55
2021/12/08 08:13:34;;;;;;;12.82;7.30;;;17.10;51.80;;;;;;5005336;28;20030;-51
2021/12/08 08:16:10;;;;;;;13.60;8.57;;;17.10;51.80;;;;;;5012665;28;20071;-52
2021/12/08 08:18:44;;;;;;;12.60;7.95;;;17.10;51.70;;;;;;5024897;28;20037;-53
2021/12/08 08:21:13;;;;;;;14.13;8.13;;;17.20;51.60;;;;;;5026147;28;20034;-51
2021/12/08 08:23:38;;;;;;;14.73;8.25;;;17.20;51.50;;;;;;5025170;28;20029;-50
2021/12/08 08:26:05;;;;;;;12.63;7.75;;;17.20;51.40;;;;;;5024805;28;20124;-56
2021/12/08 08:28:30;;;;;;;11.65;7.85;;;17.30;51.40;;;;;;5026108;28;20048;-55
2021/12/08 08:31:02;;;;;;;10.35;7.60;;;17.30;51.40;;;;;;5026592;28;20021;-55
2021/12/08 08:33:30;;;;;;;13.43;7.85;;;17.30;51.40;;;;;;5048030;28;20044;-53
2021/12/08 08:35:57;;;;;;;17.02;7.55;;;17.30;51.40;;;;;;5026443;28;20407;-55
2021/12/08 08:38:34;;;;;;;12.45;7.35;;;17.30;51.40;;;;;;5025493;28;20037;-52
2021/12/08 08:41:30;;;;;;;12.52;8.30;;;17.30;51.40;;;;;;5026251;28;20095;-53
2021/12/08 08:43:57;;;;;;;12.40;7.88;;;17.30;51.20;;;;;;5023995;28;20029;-55
2021/12/08 08:46:26;;;;;;;11.90;7.05;;;17.40;51.20;;;;;;5024535;28;20129;-54
2021/12/08 08:48:55;;;;;;;10.98;7.22;;;17.40;51.20;;;;;;5025313;28;20029;-52
2021/12/08 08:51:34;;;;;;;10.60;7.78;;;17.40;51.20;;;;;;5024879;28;20044;-55
2021/12/08 08:54:04;;;;;;;11.48;7.28;;;17.40;51.20;;;;;;5025728;28;20032;-54
2021/12/08 08:56:34;;;;;;;10.60;7.00;;;17.40;51.20;;;;;;5025743;28;20061;-53
2021/12/08 08:59:12;;;;;;;11.98;7.03;;;17.40;51.10;;;;;;5025365;28;20033;-52
2021/12/08 09:01:40;;;;;;;8.15;6.40;;;17.40;51.10;;;;;;5024133;28;20057;-51
2021/12/08 09:04:10;;;;;;;11.63;6.90;;;17.40;51.00;;;;;;5024634;28;20029;-56
2021/12/08 09:06:38;;;;;;;11.57;7.28;;;17.40;51.10;;;;;;5025862;28;20079;-53
2021/12/08 09:09:07;;;;;;;10.07;6.90;;;17.40;51.10;;;;;;5023529;28;20029;-53
2021/12/08 09:11:37;;;;;;;8.23;6.47;;;17.40;51.10;;;;;;5025014;28;20558;-52
2021/12/08 09:14:16;;;;;;;11.40;7.38;;;17.40;51.10;;;;;;5023237;28;20068;-55
2021/12/08 09:17:03;;;;;;;11.30;6.60;;;17.40;51.10;;;;;;5025221;28;20129;-51
2021/12/08 09:19:36;;;;;;;9.82;6.95;;;17.40;51.10;;;;;;5013304;28;20486;-51
2021/12/08 09:22:10;;;;;;;10.02;6.80;;;17.40;51.10;;;;;;5025156;28;20042;-51
2021/12/08 09:24:44;;;;;;;8.15;6.35;;;17.40;51.00;;;;;;5025228;28;20435;-50
2021/12/08 09:27:11;;;;;;;11.60;6.57;;;17.40;51.00;;;;;;5025259;28;20126;-50
2021/12/08 09:29:44;;;;;;;8.68;6.07;;;17.40;51.10;;;;;;5024737;28;20036;-55
2021/12/08 09:32:22;;;;;;;9.07;6.32;;;17.40;51.10;;;;;;5024567;28;20061;-51
2021/12/08 09:34:57;;;;;;;8.02;6.15;;;17.30;51.10;;;;;;5025262;28;20033;-51
2021/12/08 09:37:25;;;;;;;9.48;6.10;;;17.40;51.10;;;;;;5024973;28;20029;-50
2021/12/08 09:40:22;;;;;;;7.43;5.85;;;17.40;51.00;;;;;;5022998;28;20497;-56
2021/12/08 09:42:50;;;;;;;8.30;5.82;;;17.40;51.00;;;;;;5014582;28;20481;-51
2021/12/08 09:45:31;;;;;;;6.82;5.45;;;17.40;50.90;;;;;;5025592;28;20103;-56
2021/12/08 09:47:56;;;;;;;8.07;6.30;;;17.40;50.90;;;;;;5043335;28;20017;-54
2021/12/08 09:50:22;;;;;;;7.30;5.70;;;17.40;51.00;;;;;;5033927;28;20032;-52
2021/12/08 09:52:47;;;;;;;7.65;5.90;;;17.40;50.90;;;;;;5060162;28;20475;-55
2021/12/08 09:55:15;;;;;;;7.85;5.95;;;17.40;50.90;;;;;;5044598;28;20029;-51
2021/12/08 09:57:41;;;;;;;6.85;5.72;;;17.30;50.90;;;;;;5044743;28;20036;-52
2021/12/08 10:00:09;;;;;;;7.10;5.55;;;17.40;51.00;;;;;;5044171;28;20028;-50
2021/12/08 10:02:36;;;;;;;6.60;5.00;;;17.40;51.00;;;;;;5043869;28;20029;-52
2021/12/08 10:05:07;;;;;;;6.22;5.20;;;17.40;51.00;;;;;;5044571;28;20056;-52
2021/12/08 10:07:33;;;;;;;6.57;4.90;;;17.30;51.00;;;;;;5042398;28;20557;-51
2021/12/08 10:09:58;;;;;;;8.18;5.63;;;17.30;51.00;;;;;;5043248;28;20021;-54
2021/12/08 10:12:24;;;;;;;8.05;5.93;;;17.30;51.00;;;;;;5043531;28;20107;-53
2021/12/08 10:14:50;;;;;;;6.70;5.15;;;17.30;51.10;;;;;;5044535;28;20104;-62
2021/12/08 10:17:16;;;;;;;6.25;5.30;;;17.30;51.10;;;;;;5043421;28;20036;-52
2021/12/08 10:19:42;;;;;;;7.65;5.53;;;17.30;51.10;;;;;;5043765;28;20483;-50
2021/12/08 10:22:21;;;;;;;5.75;4.20;;;17.30;51.10;;;;;;5026257;28;20021;-51
2021/12/08 10:25:07;;;;;;;5.90;4.97;;;17.30;51.20;;;;;;5043768;28;20031;-56
2021/12/08 10:28:02;;;;;;;7.40;5.13;;;17.30;51.20;;;;;;5042709;28;20103;-53
2021/12/08 10:30:27;;;;;;;6.28;5.40;;;17.30;51.20;;;;;;5043566;28;20043;-54
2021/12/08 10:32:54;;;;;;;7.25;5.50;;;17.30;51.20;;;;;;5042138;28;20336;-52
2021/12/08 10:35:41;;;;;;;5.97;4.82;;;17.30;51.10;;;;;;5043483;28;20518;-51
2021/12/08 10:38:07;;;;;;;6.10;5.45;;;17.30;51.20;;;;;;5042074;28;20041;-53
2021/12/08 10:40:32;;;;;;;5.90;5.00;;;17.30;51.20;;;;;;5043523;28;20044;-51
2021/12/08 10:42:58;;;;;;;6.25;5.20;;;17.30;51.20;;;;;;5042671;28;20476;-55
2021/12/08 10:45:26;;;;;;;6.72;5.13;;;17.30;51.20;;;;;;5044219;28;20060;-53
2021/12/08 10:47:55;;;;;;;7.15;5.30;;;17.30;51.20;;;;;;5043158;28;20679;-51
2021/12/08 10:56:03;;;;;;;5.55;4.72;;;17.30;51.30;;;;;;5042550;28;20709;-55
2021/12/08 10:58:31;;;;;;;5.53;5.00;;;17.30;51.20;;;;;;5043762;28;20171;-53
2021/12/08 11:00:58;;;;;;;6.57;5.40;;;17.30;51.30;;;;;;5044256;28;20029;-51
2021/12/08 11:03:23;;;;;;;5.82;4.70;;;17.30;51.30;;;;;;5044250;28;20061;-58
2021/12/08 11:05:55;;;;;;;5.95;5.20;;;17.30;51.30;;;;;;5044575;28;20105;-51
2021/12/08 11:08:36;;;;;;;5.30;4.70;;;17.30;51.40;;;;;;5043540;28;20033;-51
2021/12/08 11:11:20;;;;;;;5.47;4.78;;;17.30;51.40;;;;;;5044112;28;20029;-53
2021/12/08 11:13:53;;;;;;;5.63;4.85;;;17.30;51.40;;;;;;5044015;28;20044;-55
2021/12/08 11:16:21;;;;;;;5.57;4.63;;;17.30;51.30;;;;;;5047704;28;20037;-50
2021/12/08 11:18:49;;;;;;;5.43;4.72;;;17.30;51.30;;;;;;5047026;28;20040;-51
2021/12/08 11:21:29;;;;;;;5.80;4.78;;;17.30;51.20;;;;;;5030146;28;20112;-55
2021/12/08 11:23:55;;;;;;;5.47;4.70;;;17.30;51.20;;;;;;5041674;28;20025;-51
2021/12/08 11:26:29;;;;;;;4.90;4.28;;;17.30;51.20;;;;;;5047652;28;20072;-52
2021/12/08 11:29:02;;;;;;;7.05;5.30;;;17.40;51.30;;;;;;5046522;28;20033;-51
2021/12/08 11:31:31;;;;;;;6.22;4.80;;;17.30;51.20;;;;;;5047510;28;20063;-50
2021/12/08 11:34:01;;;;;;;5.70;5.00;;;17.30;51.20;;;;;;5047654;28;20276;-55
2021/12/08 11:36:29;;;;;;;5.35;4.53;;;17.30;51.20;;;;;;5046853;28;20037;-55
2021/12/08 11:38:54;;;;;;;6.60;4.78;;;17.30;51.20;;;;;;5044118;28;20037;-51
2021/12/08 11:41:35;;;;;;;5.32;4.82;;;17.30;51.30;;;;;;5046819;28;20396;-51
2021/12/08 11:44:04;;;;;;;6.03;4.82;;;17.30;51.20;;;;;;5045656;28;20430;-53
2021/12/08 11:46:34;;;;;;;4.90;4.38;;;17.30;51.20;;;;;;5046645;28;20163;-51
2021/12/08 11:49:04;;;;;;;6.38;4.60;;;17.30;51.10;;;;;;5045006;28;20053;-53
2021/12/08 11:51:35;;;;;;;4.55;3.97;;;17.30;51.10;;;;;;5045028;28;20033;-53
2021/12/08 11:54:01;;;;;;;5.55;4.65;;;17.30;51.20;;;;;;5046678;28;20072;-55
2021/12/08 11:56:39;;;;;;;5.25;4.60;;;17.30;51.00;;;;;;5045150;28;20052;-52
2021/12/08 11:59:09;;;;;;;5.93;4.43;;;17.30;51.00;;;;;;5045152;28;20041;-54
2021/12/08 12:01:37;;;;;;;5.22;4.65;;;17.30;51.00;;;;;;5045105;28;20051;-53
2021/12/08 12:04:04;;;;;;;5.40;4.53;;;17.30;51.00;;;;;;5044948;28;20488;-56
2021/12/08 12:06:29;;;;;;;5.00;4.50;;;17.30;50.90;;;;;;5046206;28;20037;-55
2021/12/08 12:08:56;;;;;;;4.97;4.30;;;17.30;50.90;;;;;;5046050;28;20058;-54
2021/12/08 12:11:26;;;;;;;6.07;4.20;;;17.40;51.00;;;;;;5046652;28;20045;-52
2021/12/08 12:13:53;;;;;;;4.90;4.40;;;17.30;50.80;;;;;;5046674;28;20392;-52
2021/12/08 12:16:18;;;;;;;5.03;4.35;;;17.40;50.90;;;;;;5044928;28;20408;-51
2021/12/08 12:18:44;;;;;;;4.75;4.25;;;17.40;50.80;;;;;;5044350;28;20056;-51
2021/12/08 12:21:22;;;;;;;5.30;4.53;;;17.40;50.80;;;;;;5028258;28;20036;-50
2021/12/08 12:24:02;;;;;;;4.45;4.05;;;17.40;50.80;;;;;;5029568;28;20036;-52
2021/12/08 12:27:02;;;;;;;5.43;4.18;;;17.40;50.80;;;;;;5045832;28;20029;-51
2021/12/08 12:29:36;;;;;;;4.82;3.80;;;17.40;50.90;;;;;;5045382;28;20039;-55
2021/12/08 12:32:46;;;;;;;4.47;4.07;;;17.40;50.80;;;;;;5035833;28;20037;-55
2021/12/08 12:35:21;;;;;;;4.88;4.20;;;17.30;50.80;;;;;;5014532;28;20047;-54
2021/12/08 12:37:48;;;;;;;4.70;3.85;;;17.40;50.80;;;;;;5026007;28;20409;-53
2021/12/08 12:40:16;;;;;;;4.80;4.30;;;17.30;50.80;;;;;;5022894;28;20187;-52
2021/12/08 12:42:47;;;;;;;4.53;4.10;;;17.40;50.90;;;;;;5025982;28;20037;-53
2021/12/08 12:45:14;;;;;;;4.97;4.47;;;17.30;50.80;;;;;;5026125;28;20038;-52
2021/12/08 12:47:40;;;;;;;4.97;4.00;;;17.40;50.90;;;;;;5026137;28;20091;-52
2021/12/08 12:50:21;;;;;;;4.28;3.88;;;17.30;50.90;;;;;;5018384;28;20117;-52
2021/12/08 12:52:58;;;;;;;4.45;4.05;;;17.30;50.80;;;;;;5024964;28;20527;-52
2021/12/08 12:55:26;;;;;;;5.80;4.30;;;17.30;50.80;;;;;;5015229;28;20022;-53
2021/12/08 12:58:01;;;;;;;4.30;3.90;;;17.40;50.80;;;;;;5026072;28;20574;-52
2021/12/08 13:00:28;;;;;;;4.93;4.22;;;17.30;50.70;;;;;;5014155;28;20026;-54
2021/12/08 13:02:54;;;;;;;6.30;3.88;;;17.40;50.80;;;;;;5026556;28;20060;-51
2021/12/08 13:05:20;;;;;;;4.88;4.13;;;17.40;50.80;;;;;;5024677;28;20026;-54
2021/12/08 13:07:57;;;;;;;4.28;3.88;;;17.30;50.80;;;;;;5024280;28;20104;-53
2021/12/08 13:10:29;;;;;;;6.32;4.32;;;17.30;50.80;;;;;;5023828;28;20037;-53
2021/12/08 13:13:11;;;;;;;5.22;4.68;;;17.30;50.70;;;;;;5025664;28;20033;-53
2021/12/08 13:15:37;;;;;;;5.13;4.63;;;17.40;50.80;;;;;;5024393;28;20374;-50
2021/12/08 13:18:04;;;;;;;4.72;4.22;;;17.40;50.70;;;;;;5025321;28;20041;-50
2021/12/08 13:20:45;;;;;;;4.75;4.20;;;17.40;50.60;;;;;;5017295;28;20033;-54
2021/12/08 13:23:11;;;;;;;5.30;4.63;;;17.40;50.60;;;;;;5023734;28;20037;-52
2021/12/08 13:25:49;;;;;;;4.78;4.28;;;17.40;50.60;;;;;;5025767;28;20108;-53
2021/12/08 13:28:19;;;;;;;4.55;4.15;;;17.40;50.60;;;;;;5025126;28;20408;-50
2021/12/08 13:31:06;;;;;;;5.60;4.70;;;17.40;50.60;;;;;;5024720;28;20432;-50
2021/12/08 13:33:44;;;;;;;5.80;4.65;;;17.40;50.50;;;;;;5024782;28;20033;-51
2021/12/08 13:36:22;;;;;;;5.40;4.78;;;17.40;50.50;;;;;;5025226;28;20477;-55
2021/12/08 13:38:56;;;;;;;5.00;4.40;;;17.40;50.50;;;;;;5023835;28;20049;-54
2021/12/08 13:41:22;;;;;;;5.13;4.63;;;17.40;50.60;;;;;;5025299;28;20033;-55
2021/12/08 13:43:51;;;;;;;4.72;4.22;;;17.40;50.50;;;;;;5024667;28;20460;-51
2021/12/08 13:46:43;;;;;;;5.07;4.57;;;17.40;50.40;;;;;;5024591;28;20041;-52
2021/12/08 13:49:17;;;;;;;5.03;4.53;;;17.40;50.40;;;;;;5023257;28;21177;-51
2021/12/08 13:51:58;;;;;;;5.18;4.68;;;17.40;50.40;;;;;;5024738;28;20108;-51
2021/12/08 13:54:33;;;;;;;5.50;4.75;;;17.40;50.50;;;;;;5009023;28;20053;-50
2021/12/08 13:57:00;;;;;;;4.95;4.55;;;17.40;50.50;;;;;;5024316;28;20480;-50